Time;durP1;ratioP1;P1;durP2;ratioP2;P2;SDS_P1;SDS_P2;PMS_P1;PMS_P2;Temp;Humidity;BMP_temperature;BMP_pressure;BME280_temperature;BME280_humidity;BME280_pressure;Samples;Min_cycle;Max_cycle;Signal;HPM_P1;HPM_P2
2022/04/28 00:00:19;;;;;;;1.60;1.50;;;15.20;91.60;;;;;;5082473;28;20426;-65
2022/04/28 00:02:50;;;;;;;2.20;1.63;;;15.40;92.00;;;;;;5082734;28;20488;-64
2022/04/28 00:05:21;;;;;;;1.50;1.40;;;15.10;91.70;;;;;;5083405;28;20476;-64
2022/04/28 00:07:52;;;;;;;1.60;1.50;;;15.20;92.10;;;;;;5076642;28;20473;-64
2022/04/28 00:10:23;;;;;;;1.53;1.40;;;15.60;91.80;;;;;;5079514;28;20471;-64
2022/04/28 00:12:56;;;;;;;1.50;1.40;;;15.50;92.00;;;;;;5082628;28;20463;-64
2022/04/28 00:15:27;;;;;;;1.33;1.23;;;15.20;93.00;;;;;;5083588;28;20553;-64
2022/04/28 00:17:59;;;;;;;2.13;1.70;;;15.10;94.00;;;;;;5083079;28;20467;-64
2022/04/28 00:20:29;;;;;;;2.30;1.33;;;15.10;92.80;;;;;;5079261;28;20456;-66
2022/04/28 00:23:00;;;;;;;2.20;1.80;;;15.00;92.50;;;;;;5082547;28;20471;-65
2022/04/28 00:25:31;;;;;;;1.90;1.60;;;15.10;92.60;;;;;;5082832;28;20463;-65
2022/04/28 00:28:04;;;;;;;2.80;2.00;;;15.10;92.50;;;;;;5082575;28;20494;-65
2022/04/28 00:30:35;;;;;;;2.10;1.90;;;15.10;93.60;;;;;;5082116;28;20434;-65
2022/04/28 00:33:06;;;;;;;1.93;1.50;;;15.00;93.00;;;;;;5070098;28;20566;-65
2022/04/28 00:35:38;;;;;;;1.83;1.73;;;15.00;94.10;;;;;;5083645;28;20532;-65
2022/04/28 00:38:11;;;;;;;2.80;1.87;;;15.10;93.80;;;;;;5082020;28;20716;-65
2022/04/28 00:40:42;;;;;;;1.90;1.60;;;15.20;93.40;;;;;;5081510;28;20462;-65
2022/04/28 00:43:23;;;;;;;2.70;1.60;;;15.20;93.00;;;;;;5082441;28;20481;-65
2022/04/28 00:45:54;;;;;;;1.83;1.73;;;15.00;94.40;;;;;;5081282;28;20465;-65
2022/04/28 00:51:15;;;;;;;2.00;1.80;;;14.70;95.60;;;;;;5082919;28;20458;-65
2022/04/28 00:53:53;;;;;;;1.77;1.50;;;14.80;95.50;;;;;;5080769;28;20535;-67
2022/04/28 00:56:24;;;;;;;0.97;0.90;;;14.70;97.20;;;;;;5082532;28;20427;-68
2022/04/28 00:59:00;;;;;;;9.53;1.33;;;14.50;96.30;;;;;;5078903;28;20455;-67
2022/04/28 01:01:32;;;;;;;1.50;1.40;;;14.40;96.60;;;;;;5083453;28;20436;-64
2022/04/28 01:04:03;;;;;;;1.40;1.30;;;14.20;97.20;;;;;;5082751;28;20460;-65
2022/04/28 01:06:34;;;;;;;1.87;1.50;;;13.90;98.10;;;;;;5082076;28;20494;-67
2022/04/28 01:09:05;;;;;;;1.70;1.33;;;13.80;98.30;;;;;;5081429;28;20940;-66
2022/04/28 01:11:39;;;;;;;1.57;1.47;;;13.90;98.00;;;;;;5081329;28;20513;-66
2022/04/28 01:14:12;;;;;;;1.60;1.50;;;13.90;98.40;;;;;;5081470;28;20562;-67
2022/04/28 01:16:43;;;;;;;1.53;1.20;;;13.80;98.10;;;;;;5078537;28;20511;-66
2022/04/28 01:19:14;;;;;;;1.20;1.10;;;13.70;98.50;;;;;;5082783;28;20462;-66
2022/04/28 01:21:47;;;;;;;3.07;1.50;;;13.70;99.00;;;;;;5081451;28;20533;-64
2022/04/28 01:24:18;;;;;;;1.87;1.77;;;13.60;99.30;;;;;;5080363;28;20475;-64
2022/04/28 01:26:50;;;;;;;1.83;1.73;;;13.70;99.90;;;;;;5080956;28;20499;-64
2022/04/28 01:29:21;;;;;;;1.70;1.60;;;13.70;99.00;;;;;;5074703;28;20837;-64
2022/04/28 01:31:52;;;;;;;1.77;1.67;;;13.70;99.90;;;;;;5078120;28;20462;-64
2022/04/28 01:34:24;;;;;;;1.87;1.70;;;13.70;99.50;;;;;;5078908;28;20455;-65
2022/04/28 01:36:57;;;;;;;1.43;1.33;;;13.70;98.30;;;;;;5078616;28;20471;-64
2022/04/28 01:39:28;;;;;;;1.50;1.40;;;13.80;99.00;;;;;;5071908;28;20466;-65
2022/04/28 01:41:59;;;;;;;2.47;1.80;;;13.60;99.80;;;;;;5078021;28;20494;-64
2022/04/28 01:44:31;;;;;;;1.60;1.50;;;13.60;99.90;;;;;;5080176;28;20939;-65
2022/04/28 01:47:02;;;;;;;1.70;1.40;;;13.60;99.90;;;;;;5080151;28;20478;-65
2022/04/28 01:49:33;;;;;;;2.10;1.43;;;13.60;99.70;;;;;;5077261;28;20460;-64
2022/04/28 01:55:00;;;;;;;1.63;1.53;;;13.60;99.90;;;;;;5080368;28;20455;-64
2022/04/28 01:57:32;;;;;;;1.63;1.50;;;13.50;99.90;;;;;;5075094;28;20490;-64
2022/04/28 02:00:06;;;;;;;1.80;1.70;;;13.60;99.70;;;;;;5071217;28;20532;-64
2022/04/28 02:02:37;;;;;;;1.90;1.73;;;13.60;99.40;;;;;;5077272;28;20591;-65
2022/04/28 02:05:11;;;;;;;1.57;1.47;;;13.60;98.90;;;;;;5080047;28;20550;-65
2022/04/28 02:07:46;;;;;;;1.50;1.40;;;13.60;99.00;;;;;;5075984;28;20522;-65
2022/04/28 02:10:17;;;;;;;1.73;1.63;;;13.50;99.80;;;;;;5085215;28;20535;-63
2022/04/28 02:12:48;;;;;;;2.77;1.50;;;13.50;99.90;;;;;;5079102;28;21079;-63
2022/04/28 02:15:19;;;;;;;1.57;1.47;;;13.40;99.90;;;;;;5091984;28;20464;-64
2022/04/28 02:17:50;;;;;;;2.10;1.80;;;13.40;99.70;;;;;;5080017;28;20459;-63
2022/04/28 02:20:21;;;;;;;3.07;1.80;;;13.40;99.80;;;;;;5081068;28;20451;-63
2022/04/28 02:22:54;;;;;;;1.73;1.63;;;13.20;99.90;;;;;;5080933;28;20485;-63
2022/04/28 02:25:26;;;;;;;1.50;1.40;;;13.20;99.90;;;;;;5079552;28;20558;-64
2022/04/28 02:27:57;;;;;;;1.50;1.40;;;13.20;99.20;;;;;;5085219;28;20487;-64
2022/04/28 02:30:28;;;;;;;1.80;1.30;;;13.10;99.90;;;;;;5083292;28;20460;-65
2022/04/28 02:33:11;;;;;;;1.50;1.40;;;13.00;99.90;;;;;;5081977;28;20517;-64
2022/04/28 02:35:43;;;;;;;2.00;1.40;;;13.00;99.90;;;;;;5080269;28;20464;-64
2022/04/28 02:38:16;;;;;;;2.70;1.50;;;13.00;99.90;;;;;;5079578;28;20562;-64
2022/04/28 02:40:47;;;;;;;11.07;1.77;;;13.00;99.90;;;;;;5080708;28;20451;-64
2022/04/28 02:43:18;;;;;;;1.60;1.50;;;13.10;99.90;;;;;;5082106;28;20494;-64
2022/04/28 02:45:50;;;;;;;2.20;2.00;;;12.90;99.90;;;;;;5082463;28;20983;-63
2022/04/28 02:48:21;;;;;;;2.03;1.90;;;12.80;99.90;;;;;;5084645;28;20507;-63
2022/04/28 02:50:52;;;;;;;1.70;1.60;;;12.70;99.90;;;;;;5084863;28;20547;-63
2022/04/28 02:53:24;;;;;;;3.23;1.73;;;12.80;99.90;;;;;;5083554;28;20460;-63
2022/04/28 02:55:55;;;;;;;2.33;1.87;;;12.70;99.90;;;;;;5084661;28;20451;-63
2022/04/28 02:58:26;;;;;;;2.50;1.80;;;12.70;99.90;;;;;;5071386;28;20471;-64
2022/04/28 03:00:57;;;;;;;3.40;2.37;;;12.60;99.90;;;;;;5082904;28;20455;-64
2022/04/28 03:03:28;;;;;;;2.60;2.00;;;12.60;99.90;;;;;;5083858;28;20441;-65
2022/04/28 03:11:48;;;;;;;2.87;1.93;;;12.50;99.90;;;;;;5033053;28;20910;-65
2022/04/28 03:14:20;;;;;;;3.10;1.50;;;12.40;99.90;;;;;;5035868;28;20484;-64
2022/04/28 03:16:51;;;;;;;1.47;1.23;;;12.40;99.90;;;;;;5041656;28;20441;-64
2022/04/28 03:19:21;;;;;;;1.60;1.40;;;12.40;99.90;;;;;;5033675;28;20468;-65
2022/04/28 03:21:52;;;;;;;1.73;1.63;;;12.20;99.90;;;;;;5035086;28;20655;-64
2022/04/28 03:24:25;;;;;;;1.37;1.27;;;12.20;99.90;;;;;;5053944;28;20479;-64
2022/04/28 03:26:56;;;;;;;2.50;1.70;;;12.20;99.90;;;;;;5035927;28;20536;-64
2022/04/28 03:29:26;;;;;;;2.13;1.73;;;12.10;99.90;;;;;;5041947;28;20461;-63
2022/04/28 03:31:57;;;;;;;2.70;1.50;;;12.00;99.90;;;;;;5041768;28;20469;-63
2022/04/28 03:34:28;;;;;;;1.97;1.30;;;12.10;99.90;;;;;;5041258;28;20488;-63
2022/04/28 03:36:59;;;;;;;2.10;1.10;;;12.10;99.90;;;;;;5036219;28;20440;-63
2022/04/28 03:39:31;;;;;;;1.90;1.43;;;12.10;99.90;;;;;;5060502;28;20457;-64
2022/04/28 03:42:02;;;;;;;1.50;1.40;;;11.90;99.90;;;;;;5048158;28;20457;-64
2022/04/28 03:44:34;;;;;;;1.60;1.50;;;11.90;99.90;;;;;;5040614;28;20454;-63
2022/04/28 03:47:06;;;;;;;1.40;1.30;;;11.90;99.90;;;;;;5077740;28;20478;-64
2022/04/28 03:49:37;;;;;;;1.43;1.33;;;11.80;99.90;;;;;;5083527;28;20452;-64
2022/04/28 03:52:08;;;;;;;1.80;1.30;;;11.80;99.90;;;;;;5081908;28;20459;-64
2022/04/28 03:54:40;;;;;;;1.10;1.00;;;11.80;99.90;;;;;;5080638;28;20474;-63
2022/04/28 03:57:11;;;;;;;1.27;1.10;;;11.70;99.90;;;;;;5065165;28;20455;-64
2022/04/28 03:59:42;;;;;;;1.20;1.10;;;11.70;99.90;;;;;;5076116;28;20584;-64
2022/04/28 04:02:13;;;;;;;1.40;1.20;;;11.60;99.90;;;;;;5083637;28;20479;-64
2022/04/28 04:04:44;;;;;;;1.47;1.20;;;11.50;99.90;;;;;;5080810;28;20470;-64
2022/04/28 04:07:15;;;;;;;0.90;0.90;;;11.50;99.90;;;;;;5082262;28;20483;-64
2022/04/28 04:09:47;;;;;;;0.97;0.93;;;11.40;99.90;;;;;;5081292;28;20482;-64
2022/04/28 04:12:22;;;;;;;1.20;1.10;;;11.40;99.90;;;;;;5081503;28;20470;-64
2022/04/28 04:14:52;;;;;;;1.37;1.27;;;11.30;99.90;;;;;;5082080;28;20480;-63
2022/04/28 04:17:23;;;;;;;1.37;1.27;;;11.20;99.90;;;;;;5081031;28;20487;-64
2022/04/28 04:19:54;;;;;;;1.23;0.70;;;11.20;99.90;;;;;;5081958;28;20463;-64
2022/04/28 04:22:25;;;;;;;1.60;1.40;;;11.10;99.90;;;;;;5080873;28;20466;-64
2022/04/28 04:24:57;;;;;;;1.47;1.30;;;11.10;99.90;;;;;;5080973;28;20462;-64
2022/04/28 04:27:28;;;;;;;1.50;1.40;;;11.10;99.90;;;;;;5083071;28;20457;-64
2022/04/28 04:29:58;;;;;;;1.43;1.33;;;11.10;99.90;;;;;;5081015;28;20508;-64
2022/04/28 04:32:28;;;;;;;1.00;0.90;;;11.00;99.90;;;;;;5081266;28;20459;-64
2022/04/28 04:35:04;;;;;;;1.90;1.47;;;11.00;99.90;;;;;;5080743;28;20447;-64
2022/04/28 04:37:35;;;;;;;1.40;1.30;;;11.00;99.90;;;;;;5082464;28;20482;-64
2022/04/28 04:40:09;;;;;;;2.10;1.50;;;11.00;99.90;;;;;;5079861;28;20455;-64
2022/04/28 04:42:39;;;;;;;1.73;1.20;;;11.00;99.90;;;;;;5080811;28;20959;-64
2022/04/28 04:45:11;;;;;;;2.67;1.67;;;10.90;99.90;;;;;;5080639;28;20463;-63
2022/04/28 04:47:42;;;;;;;2.00;1.70;;;10.90;99.90;;;;;;5082012;28;20635;-63
2022/04/28 04:50:13;;;;;;;1.60;1.50;;;11.00;99.90;;;;;;5078699;28;20522;-63
2022/04/28 04:52:43;;;;;;;1.13;1.10;;;11.00;99.90;;;;;;5079043;28;20800;-64
2022/04/28 04:55:16;;;;;;;2.30;1.50;;;10.80;99.90;;;;;;5079425;28;20460;-63
2022/04/28 04:57:47;;;;;;;3.67;1.30;;;10.80;99.90;;;;;;5077629;28;20467;-64
2022/04/28 05:00:18;;;;;;;2.03;1.93;;;10.70;99.90;;;;;;5079173;28;20523;-64
2022/04/28 05:02:49;;;;;;;3.23;1.57;;;10.60;99.90;;;;;;5074478;28;20467;-64
2022/04/28 05:05:20;;;;;;;1.70;1.60;;;10.60;99.90;;;;;;5080168;28;20464;-64
2022/04/28 05:07:51;;;;;;;2.57;2.03;;;10.50;99.90;;;;;;5080120;28;20467;-63
2022/04/28 05:10:24;;;;;;;1.90;1.60;;;10.50;99.90;;;;;;5080154;28;20463;-64
2022/04/28 05:12:55;;;;;;;2.57;2.00;;;10.40;99.90;;;;;;5081721;28;20474;-64
2022/04/28 05:15:26;;;;;;;2.13;1.87;;;10.60;99.90;;;;;;5080209;28;20514;-64
2022/04/28 05:17:59;;;;;;;2.07;1.87;;;10.70;99.90;;;;;;5060784;28;20471;-63
2022/04/28 05:20:30;;;;;;;3.07;2.17;;;10.60;99.90;;;;;;5061169;28;20491;-63
2022/04/28 05:23:01;;;;;;;2.50;2.20;;;10.50;99.90;;;;;;5061396;28;20559;-63
2022/04/28 05:25:33;;;;;;;3.60;2.40;;;10.60;99.90;;;;;;5058728;28;20452;-63
2022/04/28 05:28:05;;;;;;;4.43;1.83;;;10.60;99.90;;;;;;5049436;28;20470;-63
2022/04/28 05:30:36;;;;;;;2.67;1.90;;;10.60;99.90;;;;;;5061677;28;20464;-63
2022/04/28 05:33:07;;;;;;;1.80;1.67;;;10.60;99.90;;;;;;5061800;28;20444;-64
2022/04/28 05:35:40;;;;;;;2.00;1.50;;;10.60;99.90;;;;;;5062330;28;20972;-63
2022/04/28 05:38:12;;;;;;;3.00;1.60;;;10.60;99.90;;;;;;5061120;28;20894;-63
2022/04/28 05:40:44;;;;;;;3.00;1.70;;;10.60;99.90;;;;;;5061663;28;20871;-63
2022/04/28 05:46:02;;;;;;;1.23;1.13;;;10.50;99.90;;;;;;5061255;28;20453;-63
2022/04/28 05:48:36;;;;;;;2.83;1.80;;;10.50;99.90;;;;;;5059700;28;20541;-63
2022/04/28 05:51:11;;;;;;;1.37;1.30;;;10.60;99.90;;;;;;5060835;28;20938;-64
2022/04/28 05:53:43;;;;;;;2.20;1.60;;;10.70;99.90;;;;;;5059366;28;20460;-63
2022/04/28 05:56:15;;;;;;;1.20;1.10;;;10.60;99.90;;;;;;5061302;28;20461;-63
2022/04/28 05:58:46;;;;;;;2.03;1.70;;;10.60;99.90;;;;;;5056531;28;20558;-63
2022/04/28 06:01:16;;;;;;;1.30;1.20;;;10.60;99.90;;;;;;5063888;28;20486;-63
2022/04/28 06:03:47;;;;;;;1.50;1.40;;;10.70;99.90;;;;;;5063679;28;20518;-63
2022/04/28 06:06:18;;;;;;;1.40;1.20;;;10.60;99.90;;;;;;5065863;28;20451;-63
2022/04/28 06:08:49;;;;;;;1.60;1.20;;;10.50;99.90;;;;;;5067261;28;20471;-63
2022/04/28 06:11:22;;;;;;;1.40;1.30;;;10.50;99.90;;;;;;5065550;28;20452;-63
2022/04/28 06:13:52;;;;;;;2.60;1.40;;;10.50;99.90;;;;;;5065253;28;20475;-63
2022/04/28 06:16:23;;;;;;;1.70;1.27;;;10.40;99.90;;;;;;5068648;28;20468;-63
2022/04/28 06:18:54;;;;;;;1.90;1.57;;;10.30;99.90;;;;;;5065002;28;20498;-64
2022/04/28 06:21:25;;;;;;;2.13;1.40;;;10.40;99.90;;;;;;5065657;28;20441;-63
2022/04/28 06:23:56;;;;;;;2.70;1.87;;;10.40;99.90;;;;;;5064430;28;20467;-63
2022/04/28 06:26:29;;;;;;;2.00;1.50;;;10.40;99.90;;;;;;5064404;28;20479;-63
2022/04/28 06:28:59;;;;;;;1.93;1.70;;;10.40;99.90;;;;;;5064246;28;20502;-63
2022/04/28 06:31:32;;;;;;;1.43;1.33;;;10.40;99.90;;;;;;5065154;28;20466;-63
2022/04/28 06:34:03;;;;;;;2.43;1.30;;;10.30;99.90;;;;;;5064822;28;20452;-63
2022/04/28 06:36:34;;;;;;;2.23;1.60;;;10.30;99.90;;;;;;5065382;28;20452;-63
2022/04/28 06:39:05;;;;;;;2.67;1.40;;;10.40;99.90;;;;;;5062235;28;20468;-64
2022/04/28 06:41:37;;;;;;;7.93;2.00;;;10.30;99.90;;;;;;5064408;28;20472;-64
2022/04/28 06:44:08;;;;;;;1.30;1.20;;;10.30;99.90;;;;;;5062990;28;20468;-63
2022/04/28 06:46:39;;;;;;;2.42;1.45;;;10.20;99.90;;;;;;5063941;28;20464;-64
2022/04/28 06:49:10;;;;;;;2.73;1.57;;;10.20;99.90;;;;;;5063696;28;20222;-64
2022/04/28 06:51:41;;;;;;;2.83;1.30;;;10.10;99.90;;;;;;5064573;28;20567;-63
2022/04/28 06:54:11;;;;;;;1.50;1.40;;;10.10;99.90;;;;;;5062846;28;20468;-63
2022/04/28 06:56:44;;;;;;;2.23;1.60;;;10.20;99.90;;;;;;5058544;28;20476;-63
2022/04/28 06:59:15;;;;;;;1.63;1.37;;;10.20;99.90;;;;;;5060579;28;20460;-63
2022/04/28 07:01:46;;;;;;;2.60;1.80;;;10.10;99.90;;;;;;5058078;28;20468;-64
2022/04/28 07:04:17;;;;;;;2.03;1.83;;;10.10;99.90;;;;;;5062696;28;20213;-63
2022/04/28 07:06:48;;;;;;;2.60;1.77;;;10.10;99.90;;;;;;5064019;28;20556;-63
2022/04/28 07:09:21;;;;;;;2.00;1.70;;;10.10;99.90;;;;;;5062893;28;20500;-63
2022/04/28 07:12:17;;;;;;;2.30;1.27;;;10.00;99.90;;;;;;5052526;28;20460;-64
2022/04/28 07:14:48;;;;;;;1.70;1.60;;;9.90;99.90;;;;;;5062708;28;20491;-64
2022/04/28 07:17:19;;;;;;;2.20;1.40;;;9.80;99.90;;;;;;5062762;28;20488;-64
2022/04/28 07:19:50;;;;;;;1.63;1.52;;;9.80;99.90;;;;;;5062879;28;20452;-64
2022/04/28 07:22:20;;;;;;;1.20;1.10;;;9.80;99.90;;;;;;5063271;28;20194;-64
2022/04/28 07:24:51;;;;;;;3.93;1.70;;;9.70;99.90;;;;;;5057514;28;20221;-64
2022/04/28 07:27:24;;;;;;;2.75;1.40;;;9.70;99.90;;;;;;5062981;28;20464;-64
2022/04/28 07:29:54;;;;;;;1.30;1.20;;;9.60;99.90;;;;;;5063156;28;20226;-64
2022/04/28 07:32:25;;;;;;;1.92;1.83;;;9.60;99.90;;;;;;5062813;28;20476;-64
2022/04/28 07:34:56;;;;;;;1.80;1.23;;;9.60;99.90;;;;;;5063259;28;20798;-64
2022/04/28 07:37:27;;;;;;;2.20;1.70;;;9.60;99.90;;;;;;5062273;28;20265;-64
2022/04/28 07:39:58;;;;;;;4.25;1.70;;;9.60;99.90;;;;;;5062416;28;20456;-64
2022/04/28 07:42:30;;;;;;;2.15;1.77;;;9.50;99.90;;;;;;5062659;28;20229;-64
2022/04/28 07:45:01;;;;;;;3.03;1.60;;;9.50;99.90;;;;;;5064018;28;20224;-64
2022/04/28 07:47:32;;;;;;;2.80;1.60;;;9.50;99.90;;;;;;5061648;28;20206;-64
2022/04/28 07:50:03;;;;;;;1.90;1.50;;;9.50;99.90;;;;;;5062321;28;20995;-64
2022/04/28 07:52:34;;;;;;;1.77;1.40;;;9.50;99.90;;;;;;5063575;28;20453;-64
2022/04/28 07:55:05;;;;;;;1.63;1.53;;;9.40;99.90;;;;;;5062050;28;20490;-64
2022/04/28 07:57:38;;;;;;;3.60;1.90;;;9.40;99.90;;;;;;5060588;28;20463;-63
2022/04/28 08:00:12;;;;;;;1.90;1.60;;;9.30;99.90;;;;;;5051229;28;20451;-64
2022/04/28 08:02:43;;;;;;;1.60;1.50;;;9.30;99.90;;;;;;5062994;28;20535;-64
2022/04/28 08:05:15;;;;;;;1.73;1.63;;;9.30;99.90;;;;;;5062569;28;20483;-64
2022/04/28 08:07:46;;;;;;;1.77;1.57;;;9.30;99.90;;;;;;5055653;28;20464;-64
2022/04/28 08:10:16;;;;;;;2.23;2.03;;;9.20;99.90;;;;;;5060697;28;20609;-64
2022/04/28 08:12:49;;;;;;;2.00;1.80;;;9.20;99.90;;;;;;5062024;28;20472;-64
2022/04/28 08:15:20;;;;;;;2.22;1.80;;;9.20;99.90;;;;;;5063200;28;20229;-64
2022/04/28 08:17:50;;;;;;;3.00;1.90;;;9.20;99.90;;;;;;5062423;28;20595;-64
2022/04/28 08:20:21;;;;;;;2.25;1.83;;;9.20;99.90;;;;;;5061559;28;20472;-66
2022/04/28 08:22:52;;;;;;;2.45;1.88;;;9.20;99.90;;;;;;5062920;28;20305;-64
2022/04/28 08:25:23;;;;;;;2.75;2.03;;;9.20;99.90;;;;;;5060362;28;20198;-64
2022/04/28 08:27:56;;;;;;;1.88;1.77;;;9.10;99.90;;;;;;5061862;28;20221;-64
2022/04/28 08:30:27;;;;;;;2.10;1.85;;;9.10;99.90;;;;;;5063154;28;20221;-64
2022/04/28 08:32:59;;;;;;;2.70;2.22;;;9.00;99.90;;;;;;5062528;28;20210;-64
2022/04/28 08:35:31;;;;;;;3.25;2.40;;;9.00;99.90;;;;;;5062368;28;20205;-64
2022/04/28 08:38:02;;;;;;;2.10;1.67;;;9.00;99.90;;;;;;5061701;28;20206;-64
2022/04/28 08:40:34;;;;;;;3.47;1.73;;;9.00;99.90;;;;;;5052042;28;20202;-64
2022/04/28 08:43:08;;;;;;;2.30;2.10;;;9.00;99.90;;;;;;5062529;28;20210;-64
2022/04/28 08:46:50;;;;;;;3.40;2.55;;;9.00;99.90;;;;;;5060826;28;20634;-64
2022/04/28 08:48:34;;;;;;;4.65;2.13;;;9.00;99.90;;;;;;5060602;28;20221;-64
2022/04/28 08:51:05;;;;;;;2.28;1.90;;;9.00;99.90;;;;;;5061264;28;20225;-63
2022/04/28 08:53:35;;;;;;;2.70;2.50;;;8.90;99.90;;;;;;5061305;28;20202;-63
2022/04/28 08:56:06;;;;;;;1.95;1.75;;;9.00;99.90;;;;;;5062375;28;20214;-64
2022/04/28 08:58:39;;;;;;;2.25;1.90;;;8.90;99.90;;;;;;5059274;28;20213;-64
2022/04/28 09:01:10;;;;;;;3.38;2.40;;;8.90;99.90;;;;;;5060475;28;20197;-64
2022/04/28 09:03:42;;;;;;;2.33;2.13;;;8.80;99.90;;;;;;5058980;28;20253;-64
2022/04/28 09:06:34;;;;;;;2.65;2.42;;;8.80;99.90;;;;;;5062124;28;20317;-64
2022/04/28 09:09:07;;;;;;;3.17;2.10;;;8.80;99.90;;;;;;5059675;28;20539;-65
2022/04/28 09:11:39;;;;;;;3.55;2.10;;;8.90;99.90;;;;;;5062310;28;20455;-64
2022/04/28 09:14:13;;;;;;;3.05;1.95;;;8.90;99.90;;;;;;5061294;28;20238;-64
2022/04/28 09:16:46;;;;;;;2.00;1.90;;;8.80;99.90;;;;;;5061929;28;20212;-64
2022/04/28 09:19:19;;;;;;;1.95;1.80;;;8.80;99.90;;;;;;5061311;28;20216;-64
2022/04/28 09:21:51;;;;;;;1.73;1.60;;;8.80;99.90;;;;;;5060143;28;20216;-64
2022/04/28 09:24:22;;;;;;;2.15;1.95;;;8.80;99.90;;;;;;5056675;28;20209;-65
2022/04/28 09:26:54;;;;;;;3.90;2.22;;;8.80;99.90;;;;;;5062300;28;20209;-64
2022/04/28 09:29:29;;;;;;;2.60;2.40;;;8.80;99.90;;;;;;5059470;28;20216;-64
2022/04/28 09:32:00;;;;;;;4.03;2.50;;;8.80;99.90;;;;;;5061182;28;20233;-64
2022/04/28 09:34:53;;;;;;;2.22;2.03;;;8.80;99.90;;;;;;5053293;28;20209;-64
2022/04/28 09:37:26;;;;;;;2.33;1.97;;;8.80;99.90;;;;;;5060044;28;20564;-64
2022/04/28 09:42:45;;;;;;;2.25;2.05;;;8.80;99.90;;;;;;5060351;28;20198;-64
2022/04/28 09:45:20;;;;;;;3.08;2.30;;;8.80;99.90;;;;;;5060650;28;20190;-64
2022/04/28 09:48:00;;;;;;;4.07;2.30;;;8.80;99.90;;;;;;5060071;28;20629;-63
2022/04/28 09:50:32;;;;;;;3.40;2.45;;;8.80;99.90;;;;;;5058761;28;21005;-63
2022/04/28 09:53:06;;;;;;;3.50;2.45;;;8.80;99.90;;;;;;5059645;28;20206;-64
2022/04/28 09:55:40;;;;;;;2.08;1.88;;;8.80;99.90;;;;;;5059863;28;20216;-63
2022/04/28 09:58:11;;;;;;;3.25;2.53;;;8.70;99.90;;;;;;5057077;28;20201;-64
2022/04/28 10:00:44;;;;;;;1.90;1.80;;;8.80;99.90;;;;;;5061423;28;20201;-63
2022/04/28 10:03:15;;;;;;;3.33;2.10;;;8.70;99.90;;;;;;5058664;28;20195;-63
2022/04/28 10:05:47;;;;;;;2.67;2.10;;;8.70;99.90;;;;;;5061429;28;20286;-63
2022/04/28 10:08:19;;;;;;;4.55;2.20;;;8.70;99.90;;;;;;5060321;28;20220;-63
2022/04/28 10:10:52;;;;;;;2.78;2.10;;;8.70;99.90;;;;;;5060897;28;20248;-64
2022/04/28 10:13:24;;;;;;;4.22;2.40;;;8.70;99.90;;;;;;5059288;28;20224;-64
2022/04/28 10:15:58;;;;;;;3.13;1.77;;;8.70;99.90;;;;;;5048701;28;20201;-63
2022/04/28 10:18:34;;;;;;;3.50;2.83;;;8.70;99.90;;;;;;5060326;28;20205;-63
2022/04/28 10:21:09;;;;;;;2.17;1.98;;;8.70;99.90;;;;;;5060498;28;20219;-63
2022/04/28 10:32:25;;;;;;;4.82;2.15;;;8.80;99.90;;;;;;5059961;28;20234;-64
2022/04/28 10:35:04;;;;;;;3.58;2.10;;;8.80;99.90;;;;;;5058312;28;20218;-64
2022/04/28 10:37:36;;;;;;;5.30;2.20;;;8.80;99.90;;;;;;5059785;28;20216;-64
2022/04/28 10:40:13;;;;;;;3.03;2.30;;;8.70;99.90;;;;;;5060183;28;20209;-63
2022/04/28 10:43:00;;;;;;;2.30;2.10;;;8.60;99.90;;;;;;5060526;28;20212;-63
2022/04/28 10:45:41;;;;;;;5.15;2.88;;;8.70;99.90;;;;;;5059016;28;20468;-64
2022/04/28 10:48:28;;;;;;;3.33;2.17;;;8.70;99.90;;;;;;5052971;28;20217;-63
2022/04/28 10:51:06;;;;;;;4.07;2.90;;;8.70;99.90;;;;;;5063996;28;20221;-63
2022/04/28 10:53:38;;;;;;;2.55;1.80;;;8.60;99.90;;;;;;5063327;28;20202;-63
2022/04/28 10:56:13;;;;;;;2.63;2.42;;;8.70;99.90;;;;;;5064670;28;20206;-63
2022/04/28 10:58:43;;;;;;;2.75;2.55;;;8.70;99.90;;;;;;5059600;28;20197;-64
2022/04/28 11:01:27;;;;;;;2.22;2.08;;;8.70;99.90;;;;;;5064125;28;20206;-64
2022/04/28 11:04:01;;;;;;;4.07;2.90;;;8.70;99.90;;;;;;5063366;28;20260;-63
2022/04/28 11:06:34;;;;;;;3.40;2.45;;;8.70;99.90;;;;;;5064288;28;20467;-63
2022/04/28 11:09:08;;;;;;;2.63;2.05;;;8.60;99.90;;;;;;5061717;28;20229;-63
2022/04/28 11:11:45;;;;;;;2.65;2.15;;;8.60;99.90;;;;;;5063218;28;20260;-63
2022/04/28 11:14:16;;;;;;;4.40;2.55;;;8.60;99.90;;;;;;5063658;28;20333;-63
2022/04/28 11:16:47;;;;;;;2.30;2.15;;;8.60;99.90;;;;;;5064283;28;20202;-63
2022/04/28 11:19:20;;;;;;;3.33;2.22;;;8.60;99.90;;;;;;5063519;28;20205;-63
2022/04/28 11:21:54;;;;;;;2.95;2.17;;;8.60;99.90;;;;;;5063130;28;20206;-63
2022/04/28 11:24:27;;;;;;;3.60;2.20;;;8.60;99.90;;;;;;5060932;28;20206;-63
2022/04/28 11:27:01;;;;;;;4.38;2.20;;;8.60;99.90;;;;;;5062414;28;20216;-63
2022/04/28 11:29:32;;;;;;;3.15;1.83;;;8.60;99.90;;;;;;5063166;28;20206;-63
2022/04/28 11:32:04;;;;;;;2.15;1.90;;;8.70;99.90;;;;;;5063359;28;20340;-63
2022/04/28 11:34:37;;;;;;;2.20;2.03;;;8.70;99.90;;;;;;5064801;28;20190;-63
2022/04/28 11:37:17;;;;;;;2.83;1.80;;;8.60;99.90;;;;;;5062360;28;20210;-63
2022/04/28 11:39:50;;;;;;;4.22;2.55;;;8.60;99.90;;;;;;5062600;28;20578;-63
2022/04/28 11:42:36;;;;;;;2.75;2.55;;;8.60;99.90;;;;;;5062685;28;20214;-63
2022/04/28 11:45:09;;;;;;;3.08;2.75;;;8.70;99.90;;;;;;5062252;28;20225;-63
2022/04/28 11:47:46;;;;;;;2.55;2.35;;;8.60;99.90;;;;;;5063104;28;20205;-63
2022/04/28 11:50:26;;;;;;;2.63;2.30;;;8.50;99.90;;;;;;5064012;28;20223;-63
2022/04/28 11:53:02;;;;;;;3.05;2.15;;;8.50;99.90;;;;;;5062447;28;20214;-63
2022/04/28 11:55:38;;;;;;;2.20;2.00;;;8.50;99.90;;;;;;5062490;28;20210;-63
2022/04/28 11:58:10;;;;;;;3.03;2.22;;;8.50;99.90;;;;;;5051836;28;20276;-63
2022/04/28 12:00:42;;;;;;;2.85;2.15;;;8.50;99.90;;;;;;5061697;28;20270;-63
2022/04/28 12:03:25;;;;;;;2.70;2.50;;;8.50;99.90;;;;;;5062165;28;20206;-63
2022/04/28 12:05:58;;;;;;;2.63;2.30;;;8.40;99.90;;;;;;5063332;28;20226;-63
2022/04/28 12:08:28;;;;;;;2.65;2.45;;;8.40;99.90;;;;;;5061414;28;20228;-63
2022/04/28 12:19:23;;;;;;;2.70;2.50;;;8.40;99.90;;;;;;5063106;28;20212;-63
2022/04/28 12:22:04;;;;;;;2.60;2.40;;;8.40;99.90;;;;;;5061563;28;20238;-63
2022/04/28 12:24:35;;;;;;;2.80;2.60;;;8.40;99.90;;;;;;5060690;28;20202;-63
2022/04/28 12:27:11;;;;;;;4.82;2.50;;;8.40;99.90;;;;;;5061831;28;20202;-63
2022/04/28 12:29:52;;;;;;;3.20;2.83;;;8.30;99.90;;;;;;5059350;28;20208;-63
2022/04/28 12:32:23;;;;;;;3.50;3.20;;;8.40;99.90;;;;;;5061355;28;20226;-63
2022/04/28 12:35:06;;;;;;;3.13;2.60;;;8.30;99.90;;;;;;5063101;28;20202;-63
2022/04/28 12:37:40;;;;;;;3.15;2.58;;;8.30;99.90;;;;;;5061197;28;20206;-63
2022/04/28 12:40:20;;;;;;;3.35;3.05;;;8.30;99.90;;;;;;5060752;28;20197;-63
2022/04/28 12:42:53;;;;;;;3.38;2.80;;;8.40;99.90;;;;;;5060842;28;20229;-63
2022/04/28 12:45:42;;;;;;;3.15;2.85;;;8.40;99.90;;;;;;5062350;28;20269;-63
2022/04/28 12:48:26;;;;;;;4.82;3.63;;;8.30;99.90;;;;;;5060038;28;20265;-64
2022/04/28 12:51:24;;;;;;;3.50;2.97;;;8.30;99.90;;;;;;5052993;28;20645;-63
2022/04/28 12:54:10;;;;;;;3.72;3.40;;;8.30;99.90;;;;;;5019071;28;20234;-63
2022/04/28 12:56:44;;;;;;;4.43;3.50;;;8.30;99.90;;;;;;5016830;28;20203;-63
2022/04/28 12:59:17;;;;;;;3.20;2.88;;;8.30;99.90;;;;;;5019370;28;20283;-63
2022/04/28 13:01:49;;;;;;;4.75;4.22;;;8.30;99.90;;;;;;5019810;28;20259;-63
2022/04/28 13:04:22;;;;;;;4.45;3.92;;;8.30;99.90;;;;;;5018865;28;20227;-63
2022/04/28 13:06:54;;;;;;;4.78;4.28;;;8.30;99.90;;;;;;5014682;28;20299;-63
2022/04/28 13:09:33;;;;;;;4.57;4.00;;;8.30;99.90;;;;;;5016491;28;20207;-62
2022/04/28 13:12:05;;;;;;;5.47;4.70;;;8.30;99.90;;;;;;5019734;28;20462;-62
2022/04/28 13:14:36;;;;;;;5.10;4.55;;;8.30;99.90;;;;;;5018431;28;20235;-62
2022/04/28 13:17:07;;;;;;;4.80;4.20;;;8.30;99.90;;;;;;5019319;28;20216;-62
2022/04/28 13:19:38;;;;;;;5.22;4.72;;;8.30;99.90;;;;;;5017252;28;20211;-62
2022/04/28 13:22:09;;;;;;;7.60;5.90;;;8.30;99.90;;;;;;5018722;28;20690;-63
2022/04/28 13:24:42;;;;;;;6.85;5.10;;;8.30;99.90;;;;;;5008997;28;20597;-62
2022/04/28 13:27:12;;;;;;;5.38;4.88;;;8.30;99.90;;;;;;5020172;28;20195;-62
2022/04/28 13:29:44;;;;;;;6.60;5.88;;;8.30;99.90;;;;;;5039362;28;20297;-62
2022/04/28 13:32:15;;;;;;;5.88;5.35;;;8.30;99.90;;;;;;5060166;28;20220;-63
2022/04/28 13:34:46;;;;;;;6.68;5.45;;;8.30;99.90;;;;;;5061489;28;20202;-63
2022/04/28 13:37:17;;;;;;;6.15;5.13;;;8.30;99.90;;;;;;5060644;28;20216;-63
2022/04/28 13:39:49;;;;;;;6.40;5.03;;;8.30;99.90;;;;;;5059440;28;20204;-63
2022/04/28 13:42:20;;;;;;;6.20;5.63;;;8.30;99.90;;;;;;5054986;28;20460;-62
2022/04/28 13:44:51;;;;;;;7.28;5.10;;;8.40;99.90;;;;;;5061209;28;20218;-62
2022/04/28 13:47:21;;;;;;;6.25;5.63;;;8.40;99.90;;;;;;5061034;28;20216;-63
2022/04/28 13:49:53;;;;;;;10.38;6.68;;;8.40;99.90;;;;;;5060195;28;20220;-63
2022/04/28 13:52:23;;;;;;;6.53;5.82;;;8.50;99.90;;;;;;5060134;28;20212;-63